ASA2447 PAWG-PAPG
Flight info
| Callsign | ASA2447 |
|---|---|
| Flight time | 0h 10m |
| Altitude | 6000 |
| Route | KAJBU5 KAJBU |
| Aircraft | B789/H-SDE1E2E3FGHIJ2J3J4J5M1RWXY/LB1D1 |
Departure
| Time | 2026-05-03 20:16 |
|---|---|
| Airport | Wrangell Airport (PAWG) |
Arrival
| Time | 2026-05-03 20:26 |
|---|---|
| Airport | Petersburg James A Johnson Airport (PAPG) |
| Time | Latitude | Longitude | Altitude | Speed | Heading |
|---|---|---|---|---|---|
| 2026-05-03 20:15 | 56.47992 | -132.35821 | 57 ft | 0 kts | 82° |
| 2026-05-03 20:15 | 56.48063 | -132.35912 | 58 ft | 41 kts | 302° |
| 2026-05-03 20:15 | 56.48348 | -132.36755 | 50 ft | 115 kts | 300° |
| 2026-05-03 20:15 | 56.48879 | -132.38306 | 115 ft | 165 kts | 304° |
| 2026-05-03 20:16 | 56.49535 | -132.40025 | 969 ft | 166 kts | 306° |
| 2026-05-03 20:16 | 56.50039 | -132.41991 | 1836 ft | 185 kts | 275° |
| 2026-05-03 20:16 | 56.49902 | -132.44383 | 2684 ft | 199 kts | 260° |
| 2026-05-03 20:16 | 56.49742 | -132.47012 | 3206 ft | 227 kts | 269° |
| 2026-05-03 20:17 | 56.49240 | -132.49921 | 3144 ft | 247 kts | 250° |
| 2026-05-03 20:17 | 56.49031 | -132.52911 | 3134 ft | 247 kts | 291° |
| 2026-05-03 20:17 | 56.50058 | -132.55075 | 4569 ft | 218 kts | 331° |
| 2026-05-03 20:17 | 56.51395 | -132.56207 | 5978 ft | 211 kts | 334° |
| 2026-05-03 20:18 | 56.52788 | -132.57473 | 6397 ft | 242 kts | 328° |
| 2026-05-03 20:18 | 56.54148 | -132.59273 | 6295 ft | 241 kts | 316° |
| 2026-05-03 20:18 | 56.55267 | -132.61546 | 6189 ft | 243 kts | 308° |
| 2026-05-03 20:18 | 56.56262 | -132.63930 | 6147 ft | 230 kts | 309° |
| 2026-05-03 20:19 | 56.57263 | -132.66186 | 5970 ft | 225 kts | 310° |
| 2026-05-03 20:19 | 56.58288 | -132.68426 | 5401 ft | 237 kts | 310° |
| 2026-05-03 20:19 | 56.59330 | -132.70701 | 5153 ft | 230 kts | 310° |
| 2026-05-03 20:19 | 56.60350 | -132.72950 | 4922 ft | 232 kts | 311° |
| 2026-05-03 20:20 | 56.61373 | -132.75204 | 4709 ft | 231 kts | 312° |
| 2026-05-03 20:20 | 56.62409 | -132.77482 | 4501 ft | 232 kts | 310° |
| 2026-05-03 20:20 | 56.63415 | -132.79716 | 4255 ft | 225 kts | 311° |
| 2026-05-03 20:20 | 56.64427 | -132.81970 | 4054 ft | 231 kts | 311° |
| 2026-05-03 20:21 | 56.65427 | -132.84175 | 3824 ft | 225 kts | 311° |
| 2026-05-03 20:21 | 56.66441 | -132.86424 | 3625 ft | 231 kts | 311° |
| 2026-05-03 20:21 | 56.67450 | -132.88659 | 3400 ft | 225 kts | 311° |
| 2026-05-03 20:21 | 56.68430 | -132.90836 | 3191 ft | 227 kts | 311° |
| 2026-05-03 20:22 | 56.69450 | -132.93102 | 3017 ft | 227 kts | 310° |
| 2026-05-03 20:22 | 56.70453 | -132.95333 | 3020 ft | 230 kts | 311° |
| 2026-05-03 20:22 | 56.71464 | -132.97571 | 2810 ft | 226 kts | 312° |
| 2026-05-03 20:22 | 56.72443 | -132.99727 | 2743 ft | 214 kts | 311° |
| 2026-05-03 20:23 | 56.73494 | -133.01978 | 2716 ft | 238 kts | 312° |
| 2026-05-03 20:23 | 56.74561 | -133.04158 | 2873 ft | 232 kts | 313° |
| 2026-05-03 20:23 | 56.75596 | -133.06434 | 2695 ft | 227 kts | 308° |
| 2026-05-03 20:23 | 56.76504 | -133.08692 | 2002 ft | 230 kts | 307° |
| 2026-05-03 20:24 | 56.77739 | -133.09951 | 2394 ft | 210 kts | 1° |
| 2026-05-03 20:24 | 56.79068 | -133.08736 | 2521 ft | 223 kts | 55° |
| 2026-05-03 20:24 | 56.79458 | -133.05942 | 2106 ft | 234 kts | 82° |
| 2026-05-03 20:24 | 56.79535 | -133.03030 | 1626 ft | 224 kts | 94° |
| 2026-05-03 20:25 | 56.79289 | -133.00393 | 839 ft | 201 kts | 97° |
| 2026-05-03 20:25 | 56.79481 | -132.98057 | 320 ft | 174 kts | 67° |
| 2026-05-03 20:25 | 56.79836 | -132.96248 | 112 ft | 125 kts | 69° |
| 2026-05-03 20:25 | 56.80057 | -132.95078 | 110 ft | 84 kts | 72° |
| 2026-05-03 20:26 | 56.80267 | -132.93981 | 108 ft | 85 kts | 69° |
| 2026-05-03 20:26 | 56.80506 | -132.93522 | 107 ft | 0 kts | 21° |
| 2026-05-03 20:26 | 56.80524 | -132.93658 | 108 ft | 0 kts | 70° |
| 2026-05-03 20:28 | 56.80527 | -132.93648 | 108 ft | 0 kts | 68° |